Time;durP1;ratioP1;P1;durP2;ratioP2;P2;SDS_P1;SDS_P2;PMS_P1;PMS_P2;Temp;Humidity;BMP_temperature;BMP_pressure;BME280_temperature;BME280_humidity;BME280_pressure;Samples;Min_cycle;Max_cycle;Signal;HPM_P1;HPM_P2
2023/09/23 00:01:28;;;;;;;2.67;1.23;;;;;;;17.77;57.71;97000.34;5039684;28;20461;-72
2023/09/23 00:03:53;;;;;;;2.40;1.10;;;;;;;17.77;57.66;97010.94;5041476;28;20473;-71
2023/09/23 00:06:21;;;;;;;6.13;1.10;;;;;;;17.72;57.06;97004.63;5033419;28;20196;-71
2023/09/23 00:08:47;;;;;;;2.47;0.90;;;;;;;17.75;56.97;97006.88;5028509;28;20202;-71
2023/09/23 00:11:13;;;;;;;1.37;0.90;;;;;;;17.73;56.72;97009.69;4999789;28;20427;-72
2023/09/23 00:13:39;;;;;;;1.37;0.90;;;;;;;17.69;56.98;97013.81;5001193;28;20437;-71
2023/09/23 00:16:09;;;;;;;3.77;0.97;;;;;;;17.73;57.11;97012.34;5019411;28;20238;-71
2023/09/23 00:18:35;;;;;;;1.20;0.93;;;;;;;17.77;56.78;97013.59;5014745;28;20449;-71
2023/09/23 00:21:02;;;;;;;1.63;1.00;;;;;;;17.81;56.85;97014.00;5035293;28;20442;-70
2023/09/23 00:23:28;;;;;;;2.10;0.70;;;;;;;17.88;56.70;97016.66;5030087;28;20196;-71
2023/09/23 00:25:53;;;;;;;1.63;0.90;;;;;;;17.92;56.42;97020.53;5042697;28;20438;-70
2023/09/23 00:28:20;;;;;;;2.83;0.90;;;;;;;17.93;56.14;97022.97;5037933;28;20215;-71
2023/09/23 00:30:46;;;;;;;3.20;0.90;;;;;;;17.96;55.97;97016.44;5011825;28;20283;-71
2023/09/23 00:33:14;;;;;;;1.20;0.93;;;;;;;17.99;55.89;97017.91;5039963;28;20513;-71
2023/09/23 00:35:44;;;;;;;1.90;1.73;;;;;;;18.03;55.66;97012.00;5030744;28;20624;-70
2023/09/23 00:38:11;;;;;;;1.37;1.00;;;;;;;17.99;54.37;97009.97;5031598;28;20934;-71
2023/09/23 00:40:38;;;;;;;1.33;0.80;;;;;;;17.97;54.99;97012.78;5030479;28;20434;-70
2023/09/23 00:43:08;;;;;;;3.07;1.30;;;;;;;17.90;54.64;97014.63;5015880;28;20535;-69
2023/09/23 00:45:34;;;;;;;2.50;0.90;;;;;;;17.86;54.58;97016.88;5027366;28;20868;-71
2023/09/23 00:48:00;;;;;;;1.50;0.83;;;;;;;17.71;53.61;97013.59;5011853;28;20478;-70
2023/09/23 00:50:26;;;;;;;1.47;0.90;;;;;;;17.63;54.43;97018.06;5042945;28;20202;-70
2023/09/23 00:52:53;;;;;;;2.70;0.90;;;;;;;17.60;54.61;97013.16;5037541;28;20454;-71
2023/09/23 00:55:24;;;;;;;2.40;0.80;;;;;;;17.69;54.23;97020.91;5038105;28;21268;-70
2023/09/23 00:57:53;;;;;;;1.10;0.80;;;;;;;17.74;53.97;97023.78;5029837;28;20204;-69
2023/09/23 01:00:25;;;;;;;2.37;0.80;;;;;;;17.66;54.86;97022.94;5035513;28;20445;-71
2023/09/23 01:02:51;;;;;;;1.87;1.10;;;;;;;17.69;55.02;97023.56;5028986;28;20446;-70
2023/09/23 01:05:21;;;;;;;2.07;1.00;;;;;;;17.69;54.87;97020.91;5028040;28;20449;-72
2023/09/23 01:07:48;;;;;;;1.73;1.00;;;;;;;17.64;55.18;97022.31;5032656;28;20226;-70
2023/09/23 01:10:16;;;;;;;4.40;0.90;;;;;;;17.63;55.25;97028.66;5032195;28;20431;-69
2023/09/23 01:12:44;;;;;;;1.97;1.03;;;;;;;17.59;55.15;97030.09;5011535;28;20481;-71
2023/09/23 01:15:10;;;;;;;2.37;0.70;;;;;;;17.63;54.89;97028.66;5024909;28;20458;-72
2023/09/23 01:17:36;;;;;;;1.53;1.00;;;;;;;17.64;54.65;97030.28;5034860;28;20445;-72
2023/09/23 01:20:01;;;;;;;2.40;0.90;;;;;;;17.69;54.65;97037.66;5033026;28;20955;-71
2023/09/23 01:22:27;;;;;;;1.10;0.80;;;;;;;17.71;54.74;97040.09;5029879;28;20184;-71
2023/09/23 01:24:53;;;;;;;1.90;1.20;;;;;;;17.66;54.87;97043.34;5031225;28;20233;-70
2023/09/23 01:27:19;;;;;;;1.23;1.00;;;;;;;17.59;55.28;97047.78;5028888;28;20446;-70
2023/09/23 01:29:52;;;;;;;3.67;1.47;;;;;;;17.47;55.93;97044.94;5039362;28;20549;-71
2023/09/23 01:32:30;;;;;;;4.03;1.60;;;;;;;17.44;56.22;97050.63;5030112;28;20895;-71
2023/09/23 01:34:56;;;;;;;3.37;1.30;;;;;;;17.42;56.34;97052.66;5032937;28;20496;-70
2023/09/23 01:37:23;;;;;;;1.97;1.27;;;;;;;17.35;56.56;97057.94;5031302;28;20465;-71
2023/09/23 01:39:48;;;;;;;1.40;1.27;;;;;;;17.31;56.54;97060.16;5034154;28;20244;-71
2023/09/23 01:42:14;;;;;;;1.43;0.93;;;;;;;17.22;56.39;97068.47;5030254;28;20991;-69
2023/09/23 01:44:40;;;;;;;3.07;0.90;;;;;;;17.18;56.49;97071.53;5029455;28;20274;-71
2023/09/23 01:47:05;;;;;;;2.50;1.10;;;;;;;17.16;56.16;97075.38;5028533;28;20223;-70
2023/09/23 01:49:31;;;;;;;2.80;0.80;;;;;;;17.21;56.27;97078.25;5033596;28;20199;-70
2023/09/23 01:51:57;;;;;;;2.20;0.63;;;;;;;17.25;55.79;97068.91;5031822;28;20660;-70
2023/09/23 01:54:22;;;;;;;1.37;0.90;;;;;;;17.23;55.50;97060.34;5033063;28;20223;-69
2023/09/23 01:56:47;;;;;;;2.40;1.20;;;;;;;17.22;55.43;97057.88;5034389;28;20240;-69
2023/09/23 01:59:13;;;;;;;1.20;1.03;;;;;;;17.11;55.63;97059.28;5035481;28;20281;-71
2023/09/23 02:01:43;;;;;;;3.50;1.13;;;;;;;17.03;55.76;97066.38;5029451;28;20211;-70
2023/09/23 02:04:09;;;;;;;4.23;0.90;;;;;;;16.98;55.72;97074.09;5036139;28;20513;-72
2023/09/23 02:06:40;;;;;;;2.17;1.00;;;;;;;16.90;55.98;97084.81;5032044;28;20459;-71
2023/09/23 02:09:05;;;;;;;1.10;0.90;;;;;;;16.93;55.98;97071.19;5033244;28;20616;-70
2023/09/23 02:11:31;;;;;;;1.30;1.00;;;;;;;17.00;55.70;97071.25;5035250;28;20465;-71
2023/09/23 02:13:56;;;;;;;1.37;0.80;;;;;;;17.09;55.49;97077.19;5032202;28;20278;-71
2023/09/23 02:16:21;;;;;;;0.90;0.63;;;;;;;17.18;55.34;97084.78;5034379;28;20294;-70
2023/09/23 02:18:50;;;;;;;1.10;1.00;;;;;;;17.10;55.27;97097.38;5032885;28;20681;-71
2023/09/23 02:21:17;;;;;;;4.40;1.17;;;;;;;17.03;55.24;97097.34;5029999;28;20330;-71
2023/09/23 02:23:43;;;;;;;2.50;1.10;;;;;;;16.95;55.27;97095.66;5028965;28;20458;-71
2023/09/23 02:26:09;;;;;;;3.33;1.03;;;;;;;16.94;55.67;97093.19;5038165;28;20438;-70
2023/09/23 02:28:35;;;;;;;2.87;0.77;;;;;;;16.95;55.72;97089.56;5034529;28;20298;-70
2023/09/23 02:31:00;;;;;;;2.27;0.97;;;;;;;17.02;55.80;97096.50;5028038;28;20429;-70
2023/09/23 02:33:26;;;;;;;1.97;0.90;;;;;;;17.03;55.62;97097.34;5026280;28;20309;-70
2023/09/23 02:35:52;;;;;;;3.43;0.93;;;;;;;17.03;55.49;97092.84;5031458;28;20672;-70
2023/09/23 02:38:18;;;;;;;1.10;0.80;;;;;;;17.03;55.33;97086.75;5029770;28;20210;-72
2023/09/23 02:40:44;;;;;;;1.20;0.93;;;;;;;17.07;55.26;97092.47;5014612;28;20423;-70
2023/09/23 02:43:09;;;;;;;2.00;1.03;;;;;;;17.05;54.82;97103.25;5032260;28;20461;-70
2023/09/23 02:45:35;;;;;;;1.97;0.90;;;;;;;16.94;54.87;97109.06;5042655;28;20224;-70
2023/09/23 02:48:00;;;;;;;2.80;0.93;;;;;;;16.85;55.19;97114.50;5032012;28;20219;-70
2023/09/23 02:50:26;;;;;;;4.20;0.97;;;;;;;16.84;55.06;97114.72;5035076;28;20278;-69
2023/09/23 02:52:51;;;;;;;4.00;0.90;;;;;;;16.79;55.32;97122.41;5031358;28;20199;-70
2023/09/23 02:55:19;;;;;;;1.63;1.20;;;;;;;16.82;55.43;97132.59;5033579;28;20269;-70
2023/09/23 02:57:46;;;;;;;1.30;1.10;;;;;;;16.80;55.38;97134.63;5011546;28;20214;-71
2023/09/23 03:00:24;;;;;;;1.23;1.00;;;;;;;16.73;55.02;97138.06;5031999;28;20818;-69
2023/09/23 03:02:54;;;;;;;3.00;0.80;;;;;;;16.69;55.31;97143.94;5033206;28;20429;-69
2023/09/23 03:05:26;;;;;;;1.10;0.90;;;;;;;16.60;55.55;97145.91;5034296;28;20435;-70
2023/09/23 03:07:55;;;;;;;1.77;0.90;;;;;;;16.63;55.54;97147.34;5025343;28;20457;-70
2023/09/23 03:10:31;;;;;;;4.50;0.87;;;;;;;16.67;55.55;97146.75;5045461;28;20429;-70
2023/09/23 03:13:07;;;;;;;2.80;0.93;;;;;;;16.65;54.90;97154.06;5036065;28;20440;-71
2023/09/23 03:16:07;;;;;;;1.80;1.07;;;;;;;16.62;55.46;97151.81;5034095;28;20457;-70
2023/09/23 03:18:33;;;;;;;2.60;0.90;;;;;;;16.59;55.26;97163.56;5028743;28;20450;-70
2023/09/23 03:21:10;;;;;;;2.80;1.20;;;;;;;16.61;55.41;97160.75;5030786;28;20489;-70
2023/09/23 03:23:39;;;;;;;3.27;0.90;;;;;;;16.63;55.27;97165.84;5038877;28;20991;-70
2023/09/23 03:26:06;;;;;;;1.27;0.90;;;;;;;16.65;55.14;97163.84;5041001;28;20434;-70
2023/09/23 03:28:33;;;;;;;3.77;1.00;;;;;;;16.67;55.19;97167.91;5033115;28;20438;-70
2023/09/23 03:31:02;;;;;;;1.63;1.00;;;;;;;16.64;54.71;97173.59;5036999;28;20788;-70
2023/09/23 03:33:29;;;;;;;2.60;0.90;;;;;;;16.62;54.87;97180.09;5036959;28;20457;-71
2023/09/23 03:35:55;;;;;;;1.40;0.90;;;;;;;16.58;54.59;97183.09;5034518;28;20464;-70
2023/09/23 03:38:20;;;;;;;1.10;0.90;;;;;;;16.56;54.88;97179.03;5031632;28;20458;-70
2023/09/23 03:40:54;;;;;;;3.43;0.80;;;;;;;16.54;55.06;97188.97;5040371;28;20431;-70
2023/09/23 03:43:20;;;;;;;1.20;1.00;;;;;;;16.54;55.13;97186.31;5034815;28;20195;-70
2023/09/23 03:45:47;;;;;;;1.30;0.90;;;;;;;16.43;54.99;97183.19;5029661;28;20935;-71
2023/09/23 03:48:12;;;;;;;2.63;0.90;;;;;;;16.40;55.02;97186.22;5030566;28;20486;-71
2023/09/23 03:50:38;;;;;;;1.23;0.90;;;;;;;16.39;55.12;97191.69;5033848;28;20536;-69
2023/09/23 03:53:03;;;;;;;2.17;1.03;;;;;;;16.34;55.04;97188.78;5050265;28;20187;-69
2023/09/23 03:55:29;;;;;;;3.33;0.90;;;;;;;16.33;55.65;97189.81;5037859;28;20215;-70
2023/09/23 03:57:55;;;;;;;3.00;0.90;;;;;;;16.36;55.25;97187.63;5025828;28;20215;-70
2023/09/23 04:00:26;;;;;;;2.17;0.90;;;;;;;16.39;55.50;97189.88;5023105;28;20605;-70
2023/09/23 04:02:52;;;;;;;2.50;0.90;;;;;;;16.44;55.26;97186.69;5026453;28;20422;-70
2023/09/23 04:05:25;;;;;;;1.20;0.70;;;;;;;16.45;55.22;97184.84;5029786;28;20433;-69
2023/09/23 04:07:50;;;;;;;1.60;0.77;;;;;;;16.43;54.86;97185.84;5025187;28;20727;-71
2023/09/23 04:10:23;;;;;;;1.30;0.80;;;;;;;16.29;55.19;97197.31;5024323;28;20441;-70
2023/09/23 04:12:49;;;;;;;1.40;0.87;;;;;;;16.26;55.43;97192.38;5028646;28;20611;-71
2023/09/23 04:15:15;;;;;;;1.67;0.90;;;;;;;16.09;55.82;97197.94;5029391;28;20470;-72
2023/09/23 04:17:40;;;;;;;1.37;1.07;;;;;;;16.12;55.42;97192.28;5037010;28;20968;-71
2023/09/23 04:20:10;;;;;;;1.10;1.00;;;;;;;16.08;55.41;97185.72;5034668;28;20226;-71
2023/09/23 04:22:40;;;;;;;1.50;1.00;;;;;;;16.09;55.75;97191.81;5010806;28;20184;-70
2023/09/23 04:25:07;;;;;;;5.43;0.97;;;;;;;16.10;55.68;97199.56;5033283;28;20511;-72
2023/09/23 04:27:36;;;;;;;3.37;1.03;;;;;;;16.03;55.80;97193.38;5028937;28;20452;-71
2023/09/23 04:30:09;;;;;;;1.57;0.93;;;;;;;15.92;55.74;97197.34;5018125;28;20441;-71
2023/09/23 04:32:43;;;;;;;1.30;1.10;;;;;;;15.97;55.92;97196.78;5011157;28;20473;-70
2023/09/23 04:35:14;;;;;;;3.53;1.10;;;;;;;16.03;55.87;97208.44;5019863;28;20861;-70
2023/09/23 04:37:39;;;;;;;1.00;0.70;;;;;;;16.05;55.75;97206.44;5018732;28;20831;-70
2023/09/23 04:40:09;;;;;;;4.93;1.00;;;;;;;16.08;55.62;97216.59;5006598;28;20423;-71
2023/09/23 04:42:35;;;;;;;1.37;0.90;;;;;;;16.12;55.70;97209.94;5042045;28;20639;-70
2023/09/23 04:45:02;;;;;;;1.53;1.00;;;;;;;16.13;55.72;97208.94;5036653;28;20516;-70
2023/09/23 04:47:27;;;;;;;1.30;0.90;;;;;;;16.12;55.54;97212.59;5028536;28;20541;-70
2023/09/23 04:49:54;;;;;;;3.47;0.90;;;;;;;16.12;55.68;97217.88;5037678;28;21204;-70
2023/09/23 04:52:20;;;;;;;2.43;0.97;;;;;;;16.12;55.58;97213.44;5040009;28;20183;-71
2023/09/23 04:54:46;;;;;;;1.40;0.90;;;;;;;16.09;55.31;97210.31;5032800;28;20949;-70
2023/09/23 04:57:13;;;;;;;1.10;0.90;;;;;;;16.11;55.38;97221.53;5038657;28;20207;-71
2023/09/23 04:59:39;;;;;;;3.13;1.13;;;;;;;16.06;55.25;97223.94;5038771;28;20194;-71
2023/09/23 05:02:05;;;;;;;1.40;1.00;;;;;;;16.01;55.32;97227.09;5036914;28;21038;-69
2023/09/23 05:04:30;;;;;;;1.50;0.93;;;;;;;15.96;55.83;97234.78;5043064;28;20195;-71
2023/09/23 05:06:56;;;;;;;1.20;0.83;;;;;;;15.95;55.29;97233.97;5041689;28;20211;-70
2023/09/23 05:09:24;;;;;;;1.20;0.90;;;;;;;15.97;55.80;97236.44;5035270;28;20187;-70
2023/09/23 05:11:51;;;;;;;1.10;0.83;;;;;;;16.05;55.87;97236.31;5033476;28;20435;-70
2023/09/23 05:14:16;;;;;;;1.47;1.00;;;;;;;16.11;55.85;97243.50;5029215;28;20435;-70
2023/09/23 05:16:42;;;;;;;1.53;0.90;;;;;;;16.18;55.95;97245.38;5027987;28;20628;-71
2023/09/23 05:19:09;;;;;;;2.70;1.00;;;;;;;16.21;55.62;97245.84;5038809;28;20261;-70
2023/09/23 05:21:35;;;;;;;3.93;1.10;;;;;;;16.19;55.31;97253.13;5026716;28;20203;-70
2023/09/23 05:24:01;;;;;;;4.47;1.10;;;;;;;16.17;55.36;97256.97;5030247;28;20885;-71
2023/09/23 05:26:27;;;;;;;2.93;1.03;;;;;;;16.12;55.48;97263.66;5035182;28;20889;-69
2023/09/23 05:28:52;;;;;;;1.10;0.70;;;;;;;16.11;55.56;97263.81;5034191;28;20462;-69
2023/09/23 05:31:18;;;;;;;2.40;0.90;;;;;;;16.10;55.74;97268.31;5037338;28;20218;-71
2023/09/23 05:33:43;;;;;;;1.73;1.20;;;;;;;16.13;55.84;97259.97;5041613;28;20222;-70
2023/09/23 05:36:10;;;;;;;3.77;0.90;;;;;;;16.15;55.87;97272.19;5035651;28;20221;-70
2023/09/23 05:38:36;;;;;;;1.00;0.80;;;;;;;16.24;55.92;97268.47;5028624;28;20748;-72
2023/09/23 05:41:04;;;;;;;2.63;1.03;;;;;;;16.37;55.37;97273.06;5034028;28;20431;-72
2023/09/23 05:43:30;;;;;;;2.80;1.10;;;;;;;16.45;55.15;97275.56;5032205;28;20497;-72
2023/09/23 05:45:55;;;;;;;2.17;1.00;;;;;;;16.53;54.76;97288.69;5035027;28;20429;-70
2023/09/23 05:48:21;;;;;;;3.07;0.90;;;;;;;16.58;54.43;97285.47;5027247;28;20703;-70
2023/09/23 05:50:47;;;;;;;3.20;1.30;;;;;;;16.61;54.64;97297.50;5030871;28;20290;-70
2023/09/23 05:53:12;;;;;;;3.87;1.10;;;;;;;16.57;54.33;97297.06;5025905;28;20187;-71
2023/09/23 05:55:38;;;;;;;1.47;0.80;;;;;;;16.43;54.46;97304.88;5032840;28;20466;-70
2023/09/23 05:58:03;;;;;;;2.23;1.17;;;;;;;16.34;55.04;97303.34;5030687;28;20770;-71
2023/09/23 06:00:29;;;;;;;1.17;0.97;;;;;;;16.31;55.28;97311.66;5022566;28;20261;-73
2023/09/23 06:02:54;;;;;;;1.20;1.00;;;;;;;16.28;55.48;97307.56;5028514;28;20287;-71
2023/09/23 06:05:20;;;;;;;3.00;1.20;;;;;;;16.33;55.29;97312.28;5027238;28;20215;-71
2023/09/23 06:07:45;;;;;;;1.53;1.20;;;;;;;16.21;55.53;97317.22;5015821;28;20238;-72
2023/09/23 06:10:11;;;;;;;1.50;0.97;;;;;;;16.13;55.61;97322.63;5028497;28;20199;-70
2023/09/23 06:12:37;;;;;;;1.03;0.90;;;;;;;16.10;55.99;97334.41;5033644;28;20699;-71
2023/09/23 06:15:03;;;;;;;1.40;1.30;;;;;;;16.12;55.63;97340.31;5036192;28;20228;-71
2023/09/23 06:17:29;;;;;;;2.90;1.30;;;;;;;16.09;56.17;97335.41;5035688;28;20249;-71
2023/09/23 06:19:59;;;;;;;1.40;1.10;;;;;;;16.03;56.43;97341.41;5030844;28;20462;-69
2023/09/23 06:22:26;;;;;;;7.80;1.47;;;;;;;16.02;55.99;97350.34;5034929;28;20233;-70
2023/09/23 06:24:52;;;;;;;1.40;1.07;;;;;;;16.00;57.11;97347.09;5000822;28;20441;-70
2023/09/23 06:27:18;;;;;;;1.50;1.10;;;;;;;16.02;57.12;97358.28;5035858;28;20986;-70
2023/09/23 06:29:44;;;;;;;4.47;1.17;;;;;;;16.10;56.65;97347.63;5029688;28;20253;-70
2023/09/23 06:32:09;;;;;;;1.73;1.10;;;;;;;16.06;56.70;97350.81;5038318;28;20923;-71
2023/09/23 06:34:35;;;;;;;1.30;1.10;;;;;;;16.04;57.34;97358.91;5028460;28;20282;-70
2023/09/23 06:37:01;;;;;;;2.23;1.03;;;;;;;15.93;57.74;97360.22;5025870;28;20219;-71
2023/09/23 06:39:26;;;;;;;4.10;1.33;;;;;;;15.93;57.25;97356.72;5027940;28;20466;-72
2023/09/23 06:41:52;;;;;;;4.70;1.10;;;;;;;16.02;57.52;97365.38;5015637;28;20226;-71
2023/09/23 06:44:17;;;;;;;2.00;1.00;;;;;;;16.07;57.44;97358.56;5043380;28;20305;-71
2023/09/23 06:46:43;;;;;;;1.10;1.00;;;;;;;16.08;57.46;97360.19;5036026;28;20652;-71
2023/09/23 06:49:08;;;;;;;1.20;1.00;;;;;;;16.17;57.47;97362.72;5039963;28;20927;-71
2023/09/23 06:51:34;;;;;;;3.53;1.30;;;;;;;16.24;57.48;97363.66;5039151;28;20219;-70
2023/09/23 06:53:59;;;;;;;1.57;1.07;;;;;;;16.27;57.64;97368.53;5033779;28;20188;-70
2023/09/23 06:56:25;;;;;;;1.70;1.10;;;;;;;16.38;57.62;97369.91;5034316;28;20621;-71
2023/09/23 06:58:50;;;;;;;3.13;1.23;;;;;;;16.51;57.99;97364.78;5035677;28;20219;-71
2023/09/23 07:01:17;;;;;;;1.53;1.40;;;;;;;16.63;57.81;97383.63;5037462;28;20191;-72
2023/09/23 07:03:42;;;;;;;2.23;1.00;;;;;;;16.75;58.51;97376.00;5039965;28;20648;-70
2023/09/23 07:06:08;;;;;;;2.73;1.30;;;;;;;16.91;58.45;97382.88;5039962;28;20436;-72
2023/09/23 07:08:33;;;;;;;6.30;1.10;;;;;;;17.00;57.76;97384.47;5042896;28;20687;-71
2023/09/23 07:10:59;;;;;;;1.60;0.90;;;;;;;16.98;56.95;97389.13;5046948;28;20190;-71
2023/09/23 07:13:24;;;;;;;3.20;1.00;;;;;;;17.08;56.88;97390.63;5044140;28;20223;-70
2023/09/23 07:15:50;;;;;;;4.70;0.90;;;;;;;17.10;55.31;97399.19;5039411;28;20715;-72
2023/09/23 07:18:15;;;;;;;2.80;0.90;;;;;;;17.23;56.03;97399.31;5035538;28;20306;-72
2023/09/23 07:20:41;;;;;;;3.07;1.17;;;;;;;17.33;55.87;97399.81;4997541;28;20187;-73
2023/09/23 07:23:06;;;;;;;1.10;0.90;;;;;;;17.46;55.75;97399.09;5001570;28;20203;-71
2023/09/23 07:25:39;;;;;;;1.00;0.90;;;;;;;17.54;54.91;97390.19;5000740;28;20192;-72
2023/09/23 07:28:08;;;;;;;1.47;0.80;;;;;;;17.65;55.00;97396.81;5036194;28;20320;-72
2023/09/23 07:30:36;;;;;;;1.87;1.17;;;;;;;17.73;54.31;97398.50;5025258;28;20475;-72
2023/09/23 07:33:02;;;;;;;2.03;0.90;;;;;;;17.81;54.36;97401.81;5017422;28;20961;-73
2023/09/23 07:35:32;;;;;;;1.53;0.80;;;;;;;17.92;54.79;97403.09;4991644;28;20449;-72
2023/09/23 07:37:59;;;;;;;2.07;1.00;;;;;;;18.01;52.67;97411.75;5004619;28;20881;-72
2023/09/23 07:40:25;;;;;;;2.10;1.00;;;;;;;18.09;52.61;97413.44;5036119;28;20426;-72
2023/09/23 07:42:51;;;;;;;2.90;1.00;;;;;;;18.09;52.19;97416.06;5042137;28;20457;-72
2023/09/23 07:45:16;;;;;;;1.30;0.87;;;;;;;18.36;51.90;97418.88;5031922;28;20442;-72
2023/09/23 07:47:42;;;;;;;3.93;1.00;;;;;;;18.48;51.32;97419.94;5035594;28;20211;-74
2023/09/23 07:50:07;;;;;;;2.17;0.90;;;;;;;18.74;51.26;97421.06;5027796;28;20279;-73
2023/09/23 07:52:34;;;;;;;1.40;0.83;;;;;;;19.01;51.08;97426.47;5032327;28;20227;-72
2023/09/23 07:55:00;;;;;;;2.63;0.80;;;;;;;19.25;50.16;97435.72;5008988;28;20196;-71
2023/09/23 07:57:25;;;;;;;1.70;0.93;;;;;;;19.45;50.12;97443.69;5030929;28;20453;-71
2023/09/23 07:59:51;;;;;;;7.27;1.13;;;;;;;19.68;50.07;97445.13;5039011;28;21493;-71
2023/09/23 08:02:16;;;;;;;1.10;0.70;;;;;;;19.76;48.42;97439.63;5032304;28;20192;-72
2023/09/23 08:04:41;;;;;;;7.10;1.10;;;;;;;19.82;48.05;97453.09;5039893;28;20278;-73
2023/09/23 08:07:07;;;;;;;2.30;0.90;;;;;;;19.97;48.13;97452.94;5037039;28;20320;-73
2023/09/23 08:09:32;;;;;;;3.00;1.60;;;;;;;19.98;46.29;97457.22;5035795;28;20303;-72
2023/09/23 08:11:58;;;;;;;2.40;0.70;;;;;;;19.98;46.38;97465.19;5046483;28;20214;-72
2023/09/23 08:14:24;;;;;;;1.93;1.10;;;;;;;20.23;46.55;97466.16;5029475;28;20274;-72
2023/09/23 08:16:52;;;;;;;1.43;0.90;;;;;;;20.39;45.99;97464.94;5025724;28;20616;-72
2023/09/23 08:19:18;;;;;;;2.73;0.93;;;;;;;20.41;44.89;97476.16;5015618;28;20429;-72
2023/09/23 08:21:43;;;;;;;2.17;1.00;;;;;;;20.53;45.72;97472.88;5042632;28;20918;-72
2023/09/23 08:24:09;;;;;;;2.60;1.00;;;;;;;20.63;45.72;97475.91;5040643;28;20278;-72
2023/09/23 08:26:34;;;;;;;2.80;1.10;;;;;;;20.95;44.70;97478.66;5040804;28;20203;-72
2023/09/23 08:28:59;;;;;;;1.10;0.80;;;;;;;20.90;43.79;97483.00;5040586;28;20191;-73
2023/09/23 08:31:25;;;;;;;2.10;1.73;;;;;;;21.22;43.49;97491.03;5029072;28;20273;-72
2023/09/23 08:33:50;;;;;;;1.83;1.00;;;;;;;21.42;42.29;97502.38;5037994;28;20269;-72
2023/09/23 08:36:16;;;;;;;3.20;1.60;;;;;;;21.59;42.53;97500.06;5033448;28;20333;-72
2023/09/23 08:38:42;;;;;;;3.73;0.80;;;;;;;21.77;41.39;97490.50;5035742;28;20218;-70
2023/09/23 08:41:07;;;;;;;4.47;1.80;;;;;;;21.97;41.78;97495.66;5035160;28;20187;-72
2023/09/23 08:43:39;;;;;;;3.87;2.13;;;;;;;22.17;41.42;97500.00;5031790;28;20517;-71
2023/09/23 08:46:09;;;;;;;4.10;2.30;;;;;;;22.32;40.86;97497.78;5039435;28;20188;-72
2023/09/23 08:48:35;;;;;;;3.30;1.83;;;;;;;22.47;40.06;97497.47;5035276;28;20504;-71
2023/09/23 08:51:02;;;;;;;4.30;3.30;;;;;;;22.71;39.35;97505.63;5023758;28;20430;-73
2023/09/23 08:53:31;;;;;;;9.97;7.93;;;;;;;22.90;39.79;97503.75;5022125;28;20442;-71
2023/09/23 08:55:56;;;;;;;2.70;2.00;;;;;;;23.08;39.58;97508.25;5010518;28;20473;-72
2023/09/23 08:58:23;;;;;;;2.60;1.47;;;;;;;23.14;38.44;97504.69;5030147;28;20458;-72
2023/09/23 09:00:49;;;;;;;3.23;2.37;;;;;;;23.17;37.83;97508.75;5028841;28;20199;-71
2023/09/23 09:03:15;;;;;;;4.10;1.20;;;;;;;23.08;38.11;97518.13;5037636;28;20487;-72
2023/09/23 09:05:40;;;;;;;4.03;2.20;;;;;;;23.10;38.61;97508.84;5029715;28;20838;-71
2023/09/23 09:08:09;;;;;;;1.63;1.30;;;;;;;23.31;38.35;97514.78;5035458;28;20683;-73
2023/09/23 09:10:35;;;;;;;5.70;3.70;;;;;;;23.51;38.84;97511.00;5029826;28;20612;-73
2023/09/23 09:13:04;;;;;;;2.27;1.97;;;;;;;23.75;37.84;97510.00;5021631;28;20426;-72
2023/09/23 09:15:30;;;;;;;3.33;1.47;;;;;;;23.96;37.51;97510.53;5028664;28;20306;-72
2023/09/23 09:17:59;;;;;;;3.33;1.10;;;;;;;23.99;37.57;97504.72;5037666;28;20508;-72
2023/09/23 09:20:24;;;;;;;1.90;1.73;;;;;;;24.16;37.02;97493.31;5026479;28;20950;-72
2023/09/23 09:22:51;;;;;;;2.97;1.80;;;;;;;24.27;35.80;97495.19;5024278;28;20435;-72
2023/09/23 09:25:20;;;;;;;6.20;5.10;;;;;;;24.46;35.55;97497.69;5040995;28;20180;-72
2023/09/23 09:27:47;;;;;;;7.60;4.00;;;;;;;24.64;35.16;97496.75;5036746;28;20438;-72
2023/09/23 09:30:13;;;;;;;10.70;9.13;;;;;;;24.65;34.70;97491.16;5041095;28;20442;-72
2023/09/23 09:32:42;;;;;;;7.10;5.07;;;;;;;24.84;34.03;97493.69;5042647;28;20507;-72
2023/09/23 09:35:12;;;;;;;5.97;4.33;;;;;;;24.92;34.58;97501.38;5035861;28;20207;-73
2023/09/23 09:37:40;;;;;;;26.10;21.20;;;;;;;25.09;35.01;97497.94;5039248;28;21035;-72
2023/09/23 09:40:09;;;;;;;19.97;15.90;;;;;;;25.17;33.89;97502.09;5012370;28;20881;-71
2023/09/23 09:42:36;;;;;;;5.27;4.20;;;;;;;25.42;33.63;97496.44;5040978;28;20532;-72
2023/09/23 09:45:03;;;;;;;9.90;8.90;;;;;;;25.65;33.63;97500.03;5011902;28;20508;-72
2023/09/23 09:47:28;;;;;;;3.40;1.40;;;;;;;25.52;32.79;97490.44;5010869;28;20450;-72
2023/09/23 09:49:54;;;;;;;2.40;1.20;;;;;;;25.07;32.31;97497.38;5018844;28;20454;-72
2023/09/23 09:52:24;;;;;;;1.40;0.90;;;;;;;25.00;33.44;97497.50;5034816;28;20702;-73
2023/09/23 09:54:54;;;;;;;2.13;1.50;;;;;;;25.46;33.34;97484.13;5031362;28;20931;-73
2023/09/23 09:57:22;;;;;;;2.27;1.10;;;;;;;25.45;30.56;97486.03;5013380;28;20533;-71
2023/09/23 09:59:48;;;;;;;5.53;2.87;;;;;;;25.65;31.32;97489.28;5035496;28;21197;-73
2023/09/23 10:02:14;;;;;;;4.17;1.63;;;;;;;25.88;30.41;97496.38;5022955;28;20915;-73
2023/09/23 10:04:45;;;;;;;23.20;17.63;;;;;;;26.06;31.18;97490.75;5010268;28;20442;-73
2023/09/23 10:07:10;;;;;;;3.10;1.50;;;;;;;26.44;31.07;97499.09;5035300;28;20484;-71
2023/09/23 10:09:38;;;;;;;2.57;1.97;;;;;;;26.57;30.00;97502.50;5039211;28;20438;-73
2023/09/23 10:12:04;;;;;;;1.40;1.00;;;;;;;26.24;28.42;97498.81;5033081;28;20195;-73
2023/09/23 10:14:29;;;;;;;2.93;2.10;;;;;;;26.08;29.46;97506.63;5026638;28;20426;-73
2023/09/23 10:16:59;;;;;;;1.53;1.20;;;;;;;26.13;29.83;97504.03;5032044;28;20281;-72
2023/09/23 10:19:32;;;;;;;3.10;2.00;;;;;;;25.90;29.91;97511.19;5034981;28;20191;-73
2023/09/23 10:22:17;;;;;;;2.83;1.40;;;;;;;25.57;29.79;97507.44;5032263;28;20487;-73
2023/09/23 10:24:43;;;;;;;2.80;1.30;;;;;;;25.15;30.58;97505.03;5031136;28;20498;-72
2023/09/23 10:27:10;;;;;;;3.60;1.37;;;;;;;24.90;30.82;97513.38;5035713;28;20446;-72
2023/09/23 10:29:47;;;;;;;2.57;1.00;;;;;;;24.30;31.77;97504.59;5036233;28;20592;-73
2023/09/23 10:32:16;;;;;;;1.73;1.13;;;;;;;23.98;32.00;97507.63;5029987;28;20479;-73
2023/09/23 10:34:47;;;;;;;3.00;1.50;;;;;;;23.65;33.20;97508.94;5037426;28;20461;-74
2023/09/23 10:37:15;;;;;;;3.30;1.30;;;;;;;23.83;32.86;97510.69;5039762;28;20525;-73
2023/09/23 10:39:44;;;;;;;4.07;3.40;;;;;;;24.41;32.77;97500.28;5032179;28;20430;-73
2023/09/23 10:42:14;;;;;;;3.67;1.17;;;;;;;25.04;32.30;97508.56;5039228;28;20429;-72
2023/09/23 10:44:39;;;;;;;2.03;1.00;;;;;;;25.28;31.81;97509.28;5040560;28;20450;-73
2023/09/23 10:47:05;;;;;;;2.70;1.00;;;;;;;25.56;31.08;97505.81;5046142;28;20553;-72
2023/09/23 10:49:30;;;;;;;2.27;1.17;;;;;;;25.45;31.25;97509.38;5039479;28;20668;-72
2023/09/23 10:51:57;;;;;;;2.70;1.30;;;;;;;25.30;31.79;97513.38;5040634;28;20619;-72
2023/09/23 10:54:24;;;;;;;1.97;0.90;;;;;;;25.45;31.64;97506.69;5028027;28;20191;-72
2023/09/23 10:56:49;;;;;;;3.90;1.53;;;;;;;25.79;31.71;97513.94;5021634;28;20466;-73
2023/09/23 10:59:15;;;;;;;2.10;0.90;;;;;;;25.99;30.49;97513.44;5033008;28;20457;-72
2023/09/23 11:01:40;;;;;;;1.90;0.90;;;;;;;26.42;30.61;97505.78;5031404;28;20196;-73
2023/09/23 11:04:06;;;;;;;1.83;0.80;;;;;;;26.79;30.59;97506.03;5041891;28;20207;-72
2023/09/23 11:06:33;;;;;;;3.13;0.90;;;;;;;27.02;30.37;97504.13;5036756;28;20678;-73
2023/09/23 11:08:59;;;;;;;2.70;0.80;;;;;;;27.21;29.26;97503.81;5036567;28;20215;-73
2023/09/23 11:11:25;;;;;;;3.30;1.10;;;;;;;27.37;29.07;97505.56;5021909;28;20841;-73
2023/09/23 11:13:50;;;;;;;9.17;7.50;;;;;;;27.74;29.66;97499.47;5039160;28;20474;-72
2023/09/23 11:16:16;;;;;;;3.63;1.60;;;;;;;28.07;29.00;97495.94;5040903;28;20211;-73
2023/09/23 11:18:42;;;;;;;4.93;1.33;;;;;;;28.10;27.87;97509.75;5041694;28;20275;-73
2023/09/23 11:21:08;;;;;;;2.90;0.90;;;;;;;28.11;27.55;97497.06;5027802;28;20200;-72
2023/09/23 11:23:34;;;;;;;1.93;1.00;;;;;;;28.06;27.44;97500.50;5030556;28;20449;-73
2023/09/23 11:25:59;;;;;;;1.80;1.10;;;;;;;27.64;27.25;97502.09;5038627;28;20184;-73
2023/09/23 11:28:25;;;;;;;2.90;1.00;;;;;;;27.50;27.68;97501.69;5032651;28;20800;-72
2023/09/23 11:30:52;;;;;;;5.13;1.20;;;;;;;27.73;27.76;97503.22;5034688;28;20184;-73
2023/09/23 11:33:18;;;;;;;1.33;1.07;;;;;;;27.57;27.53;97507.66;5038509;28;20253;-72